Time;durP1;ratioP1;P1;durP2;ratioP2;P2;SDS_P1;SDS_P2;PMS_P1;PMS_P2;Temp;Humidity;BMP_temperature;BMP_pressure;BME280_temperature;BME280_humidity;BME280_pressure;Samples;Min_cycle;Max_cycle;Signal;HPM_P1;HPM_P2
2021/11/11 00:01:08;;;;;;;;;91.67;77.33;;;;;7.34;68.48;102210.84;5021326;28;45455;-64
2021/11/11 00:03:34;;;;;;;;;94.33;70.00;;;;;7.33;68.92;102204.75;5036004;28;45413;-63
2021/11/11 00:05:59;;;;;;;;;93.00;72.00;;;;;7.25;68.82;102201.44;5022379;28;45390;-65
2021/11/11 00:08:25;;;;;;;;;87.67;68.33;;;;;7.18;68.86;102197.22;5022630;28;45343;-64
2021/11/11 00:10:51;;;;;;;;;90.67;68.00;;;;;7.11;68.82;102196.53;5020991;28;45352;-67
2021/11/11 00:13:19;;;;;;;;;95.33;71.33;;;;;7.06;68.65;102195.75;5030814;28;45300;-68
2021/11/11 00:15:48;;;;;;;;;94.67;68.33;;;;;7.06;68.79;102201.00;5038981;28;45522;-64
2021/11/11 00:18:15;;;;;;;;;90.00;66.67;;;;;7.09;68.45;102207.91;5017619;28;46512;-65
2021/11/11 00:20:41;;;;;;;;;83.00;64.33;;;;;7.12;68.85;102202.63;5036528;28;45295;-67
2021/11/11 00:23:07;;;;;;;;;94.67;70.33;;;;;7.15;68.89;102200.78;5024859;28;45520;-65
2021/11/11 00:25:33;;;;;;;;;90.00;67.00;;;;;7.16;68.17;102193.78;5029855;28;45504;-66
2021/11/11 00:27:59;;;;;;;;;91.33;65.00;;;;;7.16;68.39;102193.78;5031026;28;46186;-65
2021/11/11 00:30:26;;;;;;;;;85.33;66.00;;;;;7.16;68.50;102197.28;5037064;28;45481;-67
2021/11/11 00:32:52;;;;;;;;;88.00;64.67;;;;;7.17;68.22;102190.25;5033460;28;45399;-64
2021/11/11 00:35:24;;;;;;;;;87.00;65.67;;;;;7.17;68.09;102185.88;5038785;28;45439;-59
2021/11/11 00:37:51;;;;;;;;;91.33;67.67;;;;;7.16;68.25;102173.69;5036286;28;46102;-64
2021/11/11 00:40:17;;;;;;;;;94.33;65.67;;;;;7.15;68.15;102177.19;5033709;28;45339;-65
2021/11/11 00:42:45;;;;;;;;;91.67;67.33;;;;;7.15;67.98;102165.88;5032219;28;45382;-63
2021/11/11 00:45:11;;;;;;;;;86.00;66.00;;;;;7.08;67.84;102166.88;5034445;28;45387;-69
2021/11/11 00:47:37;;;;;;;;;88.67;67.00;;;;;6.96;68.19;102171.50;5036192;28;45372;-66
2021/11/11 00:50:05;;;;;;;;;92.67;69.33;;;;;6.85;68.22;102172.63;5036919;28;45549;-65
2021/11/11 00:52:31;;;;;;;;;92.00;71.67;;;;;6.77;68.85;102174.53;5033665;28;45449;-70
2021/11/11 00:54:58;;;;;;;;;90.67;67.33;;;;;6.73;68.79;102181.59;5011044;28;45528;-68
2021/11/11 00:57:23;;;;;;;;;100.00;77.33;;;;;6.67;68.68;102172.09;5034138;28;45681;-66
2021/11/11 00:59:49;;;;;;;;;91.00;67.33;;;;;6.62;68.28;102171.31;5036505;28;45566;-69
2021/11/11 01:02:15;;;;;;;;;90.33;67.67;;;;;6.57;68.77;102167.09;5036355;28;45513;-68
2021/11/11 01:04:41;;;;;;;;;97.33;73.00;;;;;6.52;68.93;102166.31;5033729;28;45466;-71
2021/11/11 01:07:09;;;;;;;;;97.33;68.00;;;;;6.48;69.04;102164.63;5023851;28;45483;-66
2021/11/11 01:09:37;;;;;;;;;98.67;70.67;;;;;6.44;68.74;102159.47;5032933;28;45486;-67
2021/11/11 01:12:03;;;;;;;;;102.00;71.67;;;;;6.41;68.84;102158.69;5028050;28;45178;-69
2021/11/11 01:14:29;;;;;;;;;95.33;77.33;;;;;6.39;69.09;102160.44;5026708;28;45411;-68
2021/11/11 01:16:56;;;;;;;;;95.00;69.67;;;;;6.36;69.15;102157.88;5025947;28;45468;-69
2021/11/11 01:19:22;;;;;;;;;93.33;71.67;;;;;6.34;68.71;102155.31;5015721;28;45332;-67
2021/11/11 01:21:49;;;;;;;;;99.33;72.67;;;;;6.34;68.75;102157.91;5035545;28;45171;-68
2021/11/11 01:24:15;;;;;;;;;92.67;69.00;;;;;6.32;69.01;102159.72;5034790;28;45371;-68
2021/11/11 01:26:40;;;;;;;;;97.67;76.67;;;;;6.29;69.09;102158.91;5031336;28;45277;-68
2021/11/11 01:29:06;;;;;;;;;82.67;59.00;;;;;6.29;69.63;102151.03;5035459;28;45232;-68
2021/11/11 01:31:32;;;;;;;;;95.33;72.67;;;;;6.28;69.69;102150.19;5036124;28;46354;-68
2021/11/11 01:33:58;;;;;;;;;91.00;68.67;;;;;6.28;69.11;102149.31;5035671;28;46399;-68
2021/11/11 01:36:23;;;;;;;;;97.00;69.00;;;;;6.29;68.84;102149.28;5033408;28;46087;-68
2021/11/11 01:38:49;;;;;;;;;96.00;71.00;;;;;6.29;68.91;102149.28;5035459;28;45502;-68
2021/11/11 01:41:14;;;;;;;;;93.00;69.33;;;;;6.28;69.55;102147.56;5034189;28;45585;-68
2021/11/11 01:43:40;;;;;;;;;91.00;67.00;;;;;6.28;69.90;102155.41;5035152;28;45556;-68
2021/11/11 01:46:06;;;;;;;;;92.67;69.00;;;;;6.25;68.95;102139.78;5033447;28;46399;-68
2021/11/11 01:48:31;;;;;;;;;95.00;70.00;;;;;6.21;69.79;102138.09;5034926;28;45484;-68
2021/11/11 01:50:57;;;;;;;;;93.00;70.67;;;;;6.17;69.45;102144.31;5033792;28;45313;-69
2021/11/11 01:53:24;;;;;;;;;94.67;66.67;;;;;6.17;69.57;102141.69;5034254;28;45442;-69
2021/11/11 01:55:51;;;;;;;;;90.00;68.00;;;;;6.17;69.17;102138.22;5033806;28;45505;-69
2021/11/11 01:58:17;;;;;;;;;91.67;68.67;;;;;6.13;70.13;102129.53;5035567;28;45316;-68
2021/11/11 02:00:51;;;;;;;;;96.00;71.33;;;;;6.14;70.23;102126.88;5033113;28;45407;-69
2021/11/11 02:03:17;;;;;;;;;89.67;68.00;;;;;6.13;70.53;102130.41;5030673;28;45259;-69
2021/11/11 02:05:45;;;;;;;;;91.33;70.33;;;;;6.15;69.95;102131.22;5030500;28;46101;-67
2021/11/11 02:08:11;;;;;;;;;95.00;70.00;;;;;6.16;70.21;102129.47;5025846;28;45494;-69
2021/11/11 02:10:37;;;;;;;;;87.67;66.00;;;;;6.20;69.59;102127.66;5035488;28;45491;-68
2021/11/11 02:13:05;;;;;;;;;82.33;63.67;;;;;6.25;69.48;102133.69;5030922;28;45178;-68
2021/11/11 02:15:31;;;;;;;;;93.00;68.33;;;;;6.29;69.47;102130.97;5033043;28;45363;-68
2021/11/11 02:17:58;;;;;;;;;86.67;67.00;;;;;6.34;69.34;102129.13;5037002;28;45213;-68
2021/11/11 02:20:31;;;;;;;;;89.67;67.33;;;;;6.38;69.12;102124.69;5030217;28;45308;-68
2021/11/11 02:22:59;;;;;;;;;90.00;67.00;;;;;6.40;69.55;102118.56;5031635;28;45229;-67
2021/11/11 02:25:26;;;;;;;;;91.67;67.33;;;;;6.41;68.67;102117.66;5031813;28;45553;-68
2021/11/11 02:27:55;;;;;;;;;92.67;68.67;;;;;6.44;68.74;102116.72;5035025;28;45542;-67
2021/11/11 02:30:23;;;;;;;;;90.00;67.00;;;;;6.38;69.30;102117.69;5032880;28;45300;-67
2021/11/11 02:32:49;;;;;;;;;93.00;67.67;;;;;6.29;68.64;102127.50;5033968;28;45372;-67
2021/11/11 02:35:17;;;;;;;;;88.33;66.00;;;;;6.22;69.03;102133.72;5037457;28;46273;-68
2021/11/11 02:37:44;;;;;;;;;93.00;67.00;;;;;6.14;69.35;102144.34;5032217;28;45360;-67
2021/11/11 02:40:16;;;;;;;;;87.00;66.33;;;;;6.11;68.71;102142.66;5032607;28;45240;-67
2021/11/11 02:42:43;;;;;;;;;95.33;69.00;;;;;6.12;69.71;102138.28;5032488;28;45401;-67
2021/11/11 02:45:13;;;;;;;;;88.67;65.33;;;;;6.17;69.25;102131.22;5033519;28;46008;-68
2021/11/11 02:47:40;;;;;;;;;87.00;63.33;;;;;6.18;68.85;102129.47;5037530;28;45299;-67
2021/11/11 02:50:06;;;;;;;;;95.33;67.33;;;;;6.12;68.75;102131.28;5031068;28;45316;-67
2021/11/11 02:52:32;;;;;;;;;87.67;68.00;;;;;6.05;68.72;102132.28;5028542;28;45315;-68
2021/11/11 02:54:58;;;;;;;;;89.33;68.67;;;;;6.00;69.08;102128.88;5032710;28;45359;-68
2021/11/11 02:57:32;;;;;;;;;88.33;64.00;;;;;6.00;68.76;102126.25;5012354;28;45353;-68
2021/11/11 03:00:03;;;;;;;;;88.00;66.33;;;;;6.05;69.15;102129.66;5035078;28;45454;-68
2021/11/11 03:02:34;;;;;;;;;87.00;65.00;;;;;6.08;68.68;102129.63;5031196;28;45265;-68
2021/11/11 03:05:02;;;;;;;;;87.67;69.33;;;;;6.11;69.10;102131.31;5031626;28;45584;-69
2021/11/11 03:07:27;;;;;;;;;93.67;70.00;;;;;6.06;69.37;102128.78;5029742;28;45324;-68
2021/11/11 03:09:53;;;;;;;;;94.00;68.67;;;;;5.99;68.47;102123.69;5033656;28;45256;-68
2021/11/11 03:12:20;;;;;;;;;82.00;62.00;;;;;5.93;68.30;102129.06;5031506;28;45432;-68
2021/11/11 03:14:47;;;;;;;;;90.67;68.00;;;;;5.87;68.69;102136.06;5034672;28;45550;-68
2021/11/11 03:17:13;;;;;;;;;95.33;69.33;;;;;5.83;69.17;102136.13;5032511;28;45372;-68
2021/11/11 03:19:39;;;;;;;;;86.33;62.33;;;;;5.79;69.62;102131.88;5031025;28;45553;-68
2021/11/11 03:22:10;;;;;;;;;93.67;69.67;;;;;5.81;69.67;102128.31;5029929;28;45278;-68
2021/11/11 03:24:38;;;;;;;;;90.00;67.67;;;;;5.78;68.94;102119.69;5034036;28;45496;-68
2021/11/11 03:27:06;;;;;;;;;91.00;66.67;;;;;5.75;69.18;102119.72;5030020;28;45314;-68
2021/11/11 03:29:32;;;;;;;;;86.33;65.33;;;;;5.78;70.13;102114.44;5032510;28;45248;-68
2021/11/11 03:31:59;;;;;;;;;82.67;66.00;;;;;5.83;69.05;102118.69;5035273;28;45478;-68
2021/11/11 03:34:25;;;;;;;;;87.67;64.00;;;;;5.83;69.23;102123.91;5035237;28;45538;-67
2021/11/11 03:36:54;;;;;;;;;92.67;67.00;;;;;5.80;68.76;102133.59;5030862;28;45471;-68
2021/11/11 03:39:21;;;;;;;;;90.33;66.67;;;;;5.77;69.06;102133.66;5033888;28;45268;-68
2021/11/11 03:41:48;;;;;;;;;89.67;66.67;;;;;5.80;68.86;102144.91;5034204;28;45401;-68
2021/11/11 03:44:18;;;;;;;;;89.00;67.67;;;;;5.83;68.94;102142.22;5032835;28;45437;-68
2021/11/11 03:46:46;;;;;;;;;88.67;64.67;;;;;5.86;69.45;102144.81;5032261;28;45330;-69
2021/11/11 03:49:12;;;;;;;;;86.67;66.00;;;;;5.85;68.73;102144.84;5030026;28;45262;-68
2021/11/11 03:51:38;;;;;;;;;88.00;66.67;;;;;5.81;69.14;102137.91;5029468;28;45574;-68
2021/11/11 03:54:05;;;;;;;;;86.00;66.00;;;;;5.76;69.19;102140.59;5029379;28;45335;-68
2021/11/11 03:56:32;;;;;;;;;85.67;63.67;;;;;5.72;69.14;102138.94;5031662;28;45450;-68
2021/11/11 03:58:58;;;;;;;;;81.33;64.00;;;;;5.71;68.76;102137.22;5037119;28;45522;-68
2021/11/11 04:01:23;;;;;;;;;90.67;66.67;;;;;5.73;68.59;102132.81;5034718;28;45546;-68
2021/11/11 04:03:50;;;;;;;;;86.67;64.00;;;;;5.73;68.53;102140.66;5036295;28;45366;-68
2021/11/11 04:06:15;;;;;;;;;88.33;67.00;;;;;5.65;68.01;102136.44;5031800;28;45283;-68
2021/11/11 04:08:41;;;;;;;;;91.33;65.33;;;;;5.59;68.52;102132.19;5035640;28;45213;-68
2021/11/11 04:11:06;;;;;;;;;88.33;65.00;;;;;5.54;68.42;102132.28;5037464;28;45546;-68
2021/11/11 04:13:32;;;;;;;;;83.67;63.00;;;;;5.55;69.55;102143.59;5038218;28;45656;-68
2021/11/11 04:15:57;;;;;;;;;85.00;62.00;;;;;5.55;68.71;102148.81;5032520;28;45260;-68
2021/11/11 04:18:23;;;;;;;;;87.67;65.67;;;;;5.54;69.53;102152.31;5035227;28;45273;-68
2021/11/11 04:20:48;;;;;;;;;83.33;61.00;;;;;5.57;68.93;102152.25;5035219;28;45409;-68
2021/11/11 04:23:14;;;;;;;;;83.67;63.00;;;;;5.64;68.58;102150.41;5037617;28;45465;-68
2021/11/11 04:28:11;;;;;;;;;79.67;61.00;;;;;5.58;68.35;102167.91;5037276;28;45349;-68
2021/11/11 04:30:37;;;;;;;;;80.00;60.33;;;;;5.54;68.48;102184.53;5035205;28;45455;-68
2021/11/11 04:33:05;;;;;;;;;79.00;59.67;;;;;5.55;68.23;102182.78;5035010;28;45323;-68
2021/11/11 04:35:32;;;;;;;;;72.33;57.67;;;;;5.56;68.06;102176.69;5034621;28;45480;-68
2021/11/11 04:38:12;;;;;;;;;81.33;61.00;;;;;5.55;68.21;102164.50;5035096;28;45493;-68
2021/11/11 04:43:46;;;;;;;;;77.00;59.33;;;;;5.54;68.28;102188.91;5034540;28;45332;-68
2021/11/11 04:46:40;;;;;;;;;81.67;61.00;;;;;5.57;68.45;102194.94;5025278;28;45546;-68
2021/11/11 05:00:24;;;;;;;;;77.67;58.67;;;;;5.32;68.23;102177.91;5032824;28;45512;-68
2021/11/11 05:03:00;;;;;;;;;74.33;57.33;;;;;5.25;67.89;102171.03;5031831;28;45458;-68
2021/11/11 05:05:26;;;;;;;;;75.00;57.00;;;;;5.18;67.58;102174.63;5033623;28;45565;-68
2021/11/11 05:07:53;;;;;;;;;81.00;56.00;;;;;5.19;67.81;102177.19;5033554;28;45440;-68
2021/11/11 05:10:19;;;;;;;;;73.67;59.67;;;;;5.22;68.37;102181.53;5037528;28;45401;-68
2021/11/11 05:12:45;;;;;;;;;77.00;58.33;;;;;5.24;67.52;102187.59;5033490;28;45422;-68
2021/11/11 05:15:11;;;;;;;;;75.33;59.33;;;;;5.19;67.55;102199.84;5035110;28;46106;-68
2021/11/11 05:17:40;;;;;;;;;79.33;57.67;;;;;5.12;67.95;102193.84;5034058;28;45233;-68
2021/11/11 05:20:07;;;;;;;;;82.67;58.33;;;;;5.09;67.92;102186.06;5031217;28;45321;-68
2021/11/11 05:22:32;;;;;;;;;67.33;56.33;;;;;5.08;67.11;102193.91;5034719;28;45380;-68
2021/11/11 05:24:58;;;;;;;;;72.00;55.00;;;;;5.11;68.17;102192.13;5035836;28;46422;-68
2021/11/11 05:27:26;;;;;;;;;76.33;58.00;;;;;5.13;67.93;102194.69;5033817;28;45383;-69
2021/11/11 05:29:53;;;;;;;;;74.67;56.00;;;;;5.09;67.53;102186.06;5025031;28;45272;-68
2021/11/11 05:32:19;;;;;;;;;73.67;58.33;;;;;5.10;67.98;102186.91;5035861;28;45402;-68
2021/11/11 05:34:45;;;;;;;;;77.67;56.67;;;;;5.11;68.04;102186.88;5039155;28;45324;-68
2021/11/11 05:37:12;;;;;;;;;74.67;57.33;;;;;5.18;68.32;102196.38;5032502;28;45392;-68
2021/11/11 05:39:38;;;;;;;;;70.67;56.00;;;;;5.20;68.21;102199.81;5036198;28;45462;-68
2021/11/11 05:42:04;;;;;;;;;81.00;60.00;;;;;5.19;67.96;102200.72;5033405;28;45494;-68
2021/11/11 05:44:30;;;;;;;;;75.33;56.00;;;;;5.21;67.45;102204.19;5010352;28;46797;-68
2021/11/11 05:46:56;;;;;;;;;79.33;57.33;;;;;5.24;67.51;102200.66;5023907;28;45412;-68
2021/11/11 05:49:22;;;;;;;;;73.00;56.00;;;;;5.27;67.17;102203.22;5025253;28;45435;-68
2021/11/11 05:51:48;;;;;;;;;79.33;56.00;;;;;5.28;67.06;102205.81;5025810;28;45473;-68
2021/11/11 05:54:14;;;;;;;;;84.67;59.00;;;;;5.29;67.11;102211.88;5028882;28;45399;-68
2021/11/11 05:56:39;;;;;;;;;71.67;53.33;;;;;5.27;67.14;102216.28;5031188;28;45340;-68
2021/11/11 05:59:05;;;;;;;;;74.33;58.67;;;;;5.29;67.42;102225.84;5033995;28;45315;-68
2021/11/11 06:01:31;;;;;;;;;73.33;57.33;;;;;5.30;67.06;102230.19;5032715;28;45506;-68
2021/11/11 06:03:57;;;;;;;;;67.00;52.67;;;;;5.30;66.17;102226.72;5032988;28;45426;-68
2021/11/11 06:06:23;;;;;;;;;69.67;54.00;;;;;5.29;66.49;102235.41;5031345;28;46455;-68
2021/11/11 06:08:49;;;;;;;;;66.00;52.33;;;;;5.23;67.29;102236.38;5033651;28;45266;-68
2021/11/11 06:11:15;;;;;;;;;72.67;54.67;;;;;5.18;66.82;102238.16;5035669;28;45538;-69
2021/11/11 06:13:41;;;;;;;;;68.00;54.33;;;;;5.18;67.55;102245.16;5036256;28;45464;-68
2021/11/11 06:16:06;;;;;;;;;72.67;54.00;;;;;5.18;66.68;102255.59;5031026;28;45186;-68
2021/11/11 06:18:32;;;;;;;;;69.00;55.33;;;;;5.22;67.34;102257.28;5031638;28;45328;-68
2021/11/11 06:21:00;;;;;;;;;75.33;59.33;;;;;5.22;66.87;102258.16;5034274;28;45534;-68
2021/11/11 06:23:27;;;;;;;;;75.00;56.33;;;;;5.22;66.87;102263.38;5035452;28;46197;-68
2021/11/11 06:25:54;;;;;;;;;77.67;55.00;;;;;5.18;67.12;102274.75;5015461;28;45476;-68
2021/11/11 06:28:20;;;;;;;;;71.00;52.67;;;;;5.14;67.33;102270.44;5034066;28;45481;-68
2021/11/11 06:30:46;;;;;;;;;72.33;52.67;;;;;5.16;66.87;102286.09;5034342;28;45663;-68
2021/11/11 06:33:11;;;;;;;;;81.00;58.33;;;;;5.18;66.59;102290.41;5015463;28;45450;-67
2021/11/11 06:35:37;;;;;;;;;13.00;6.67;;;;;5.18;66.80;102287.81;5033640;28;45379;-67
2021/11/11 06:38:04;;;;;;;;;69.00;55.00;;;;;5.14;66.59;102286.13;5033492;28;45784;-68
2021/11/11 06:40:30;;;;;;;;;74.33;55.67;;;;;5.08;67.08;102299.25;5034391;28;45308;-68
2021/11/11 06:42:57;;;;;;;;;65.00;44.00;;;;;5.07;66.82;102304.50;5032607;28;45405;-68
2021/11/11 06:45:24;;;;;;;;;71.67;54.67;;;;;5.10;67.72;102312.28;5031274;28;45300;-68
2021/11/11 06:47:50;;;;;;;;;75.00;59.00;;;;;5.13;66.92;102310.50;5033132;28;45329;-68
2021/11/11 06:50:15;;;;;;;;;74.00;57.33;;;;;5.13;67.78;102312.25;5035364;28;45617;-67
2021/11/11 06:52:41;;;;;;;;;80.00;56.33;;;;;5.15;68.12;102316.59;5037493;28;45639;-67
2021/11/11 06:55:08;;;;;;;;;70.33;56.67;;;;;5.21;68.44;102311.28;5032936;28;45256;-66
2021/11/11 06:57:35;;;;;;;;;305.00;244.50;;;;;5.28;67.83;102317.28;5026269;28;45437;-65
2021/11/11 07:00:03;;;;;;;;;107.33;90.00;;;;;5.38;67.48;102321.53;5026715;28;45265;-65
2021/11/11 07:02:28;;;;;;;;;67.00;53.33;;;;;5.44;67.89;102324.06;5022483;28;45426;-65
2021/11/11 07:04:54;;;;;;;;;76.67;57.33;;;;;5.45;67.73;102330.13;5026962;28;45461;-65
2021/11/11 07:07:20;;;;;;;;;76.00;56.67;;;;;5.42;67.62;102333.66;5036524;28;45436;-65
2021/11/11 07:09:45;;;;;;;;;71.33;55.67;;;;;5.41;67.48;102328.47;5032030;28;45355;-65
2021/11/11 07:12:11;;;;;;;;;69.33;53.33;;;;;5.42;67.23;102335.41;5029565;28;45723;-65
2021/11/11 07:14:37;;;;;;;;;72.00;59.00;;;;;5.49;67.03;102337.06;5033822;28;45602;-65
2021/11/11 07:17:04;;;;;;;;;67.67;53.00;;;;;5.56;67.02;102338.72;5018397;28;45195;-65
2021/11/11 07:19:32;;;;;;;;;74.67;59.00;;;;;5.62;67.46;102329.94;5034733;28;45313;-65
2021/11/11 07:21:58;;;;;;;;;73.33;56.33;;;;;5.71;67.71;102332.44;5033724;28;45489;-65
2021/11/11 07:24:24;;;;;;;;;70.33;57.00;;;;;5.79;66.67;102335.81;5025358;28;45406;-65
2021/11/11 07:26:49;;;;;;;;;75.00;57.67;;;;;5.80;67.52;102332.31;5029385;28;45328;-65
2021/11/11 07:29:15;;;;;;;;;78.00;61.00;;;;;5.81;66.40;102328.81;5035664;28;45491;-65
2021/11/11 07:31:43;;;;;;;;;77.33;57.67;;;;;5.82;66.44;102327.91;5022957;28;45679;-65
2021/11/11 07:34:09;;;;;;;;;76.00;54.33;;;;;5.82;67.07;102322.69;5018418;28;45374;-65
2021/11/11 07:36:37;;;;;;;;;73.00;53.00;;;;;5.84;66.43;102331.38;5026666;28;45582;-64
2021/11/11 07:39:03;;;;;;;;;71.00;54.67;;;;;5.86;66.44;102335.72;5019017;28;45490;-65
2021/11/11 07:41:29;;;;;;;;;75.33;56.00;;;;;5.90;66.24;102336.50;5031302;28;46392;-65
2021/11/11 07:43:54;;;;;;;;;67.33;51.67;;;;;5.93;66.86;102328.69;5030652;28;45418;-65
2021/11/11 07:46:20;;;;;;;;;72.00;54.33;;;;;5.96;66.86;102330.38;5033607;28;45427;-65
2021/11/11 07:48:46;;;;;;;;;75.00;57.00;;;;;6.00;67.01;102330.28;5033503;28;45380;-65
2021/11/11 07:51:11;;;;;;;;;71.67;54.00;;;;;6.05;66.89;102335.47;5033815;28;45558;-65
2021/11/11 07:53:37;;;;;;;;;75.00;55.67;;;;;6.09;66.00;102331.94;5031863;28;45659;-65
2021/11/11 07:56:03;;;;;;;;;63.00;46.00;;;;;6.16;66.54;102338.78;5029923;28;45435;-66
2021/11/11 07:58:29;;;;;;;;;83.33;58.33;;;;;6.21;66.54;102331.72;5016634;28;45435;-66
2021/11/11 08:00:55;;;;;;;;;72.67;57.67;;;;;6.27;66.83;102328.16;5026383;28;45355;-66
2021/11/11 08:03:21;;;;;;;;;82.00;60.00;;;;;6.32;66.34;102323.69;5036506;28;45727;-66
2021/11/11 08:05:47;;;;;;;;;76.00;59.33;;;;;6.37;66.57;102319.25;5022993;28;45490;-66
2021/11/11 08:08:12;;;;;;;;;74.67;57.00;;;;;6.41;65.86;102326.19;5035994;28;45321;-65
2021/11/11 08:10:38;;;;;;;;;80.33;57.67;;;;;6.44;66.36;102320.88;5023787;28;46386;-66
2021/11/11 08:13:04;;;;;;;;;74.33;58.00;;;;;6.47;66.85;102312.97;5022966;28;45400;-65
2021/11/11 08:15:30;;;;;;;;;76.00;58.00;;;;;6.52;66.69;102310.28;5024854;28;45230;-66
2021/11/11 08:17:57;;;;;;;;;66.67;47.67;;;;;6.53;66.38;102312.00;5023392;28;45593;-66
2021/11/11 08:20:22;;;;;;;;;80.67;57.67;;;;;6.55;66.08;102310.22;5026076;28;46252;-66
2021/11/11 08:22:49;;;;;;;;;76.67;58.33;;;;;6.55;66.11;102311.09;5022725;28;45396;-65
2021/11/11 08:25:17;;;;;;;;;47.67;31.33;;;;;6.58;66.27;102307.56;5026063;28;45245;-66
2021/11/11 08:27:43;;;;;;;;;73.00;56.00;;;;;6.59;66.36;102307.53;5028018;28;45486;-66
2021/11/11 08:30:13;;;;;;;;;81.67;61.00;;;;;6.59;66.49;102304.06;5027562;28;46154;-66
2021/11/11 08:32:40;;;;;;;;;74.00;57.00;;;;;6.62;66.12;102304.84;5016942;28;45697;-66
2021/11/11 08:35:06;;;;;;;;;86.67;61.33;;;;;6.66;66.03;102300.44;5038255;28;45334;-66
2021/11/11 08:37:32;;;;;;;;;80.00;57.67;;;;;6.68;66.34;102294.28;5025888;28;45484;-66
2021/11/11 08:39:57;;;;;;;;;75.33;57.33;;;;;6.69;66.65;102298.63;5039885;28;45406;-65
2021/11/11 08:42:23;;;;;;;;;;;;;;;6.72;66.82;102295.97;5034214;28;45300;-68
2021/11/11 08:44:49;;;;;;;;;80.67;60.00;;;;;6.76;66.37;102295.91;5011779;28;45467;-68
2021/11/11 08:47:18;;;;;;;;;74.33;53.33;;;;;6.78;66.76;102294.09;5026798;28;45312;-68
2021/11/11 08:49:45;;;;;;;;;81.00;62.00;;;;;6.81;66.75;102289.69;5032212;28;46204;-67
2021/11/11 08:52:12;;;;;;;;;79.00;60.67;;;;;6.82;66.88;102283.56;5025752;28;45364;-68
2021/11/11 08:54:38;;;;;;;;;72.67;57.33;;;;;6.79;66.36;102291.44;5035110;28;45466;-64
2021/11/11 08:57:04;;;;;;;;;79.33;59.67;;;;;6.82;66.68;102283.56;5042884;28;45264;-63
2021/11/11 08:59:29;;;;;;;;;77.00;57.33;;;;;6.87;67.07;102276.47;5042857;28;46098;-62
2021/11/11 09:01:55;;;;;;;;;82.00;57.33;;;;;6.91;66.92;102275.50;5032616;28;45292;-62
2021/11/11 09:04:22;;;;;;;;;79.67;58.67;;;;;6.97;67.08;102272.78;5025524;28;45356;-61
2021/11/11 09:06:49;;;;;;;;;88.00;61.67;;;;;7.03;66.43;102263.94;5038835;28;45170;-60
2021/11/11 09:09:15;;;;;;;;;89.67;64.33;;;;;7.09;66.23;102261.19;5039828;28;45808;-61
2021/11/11 09:11:42;;;;;;;;;83.00;58.67;;;;;7.13;66.33;102268.09;5014544;28;46062;-62
2021/11/11 09:14:09;;;;;;;;;81.33;60.33;;;;;7.18;66.44;102274.09;5035385;28;45387;-61
2021/11/11 09:16:38;;;;;;;;;71.33;56.00;;;;;7.21;66.25;102265.31;5042599;28;45227;-62
2021/11/11 09:19:05;;;;;;;;;80.67;55.00;;;;;7.26;66.58;102272.16;5033729;28;45446;-61
2021/11/11 09:21:31;;;;;;;;;79.67;61.33;;;;;7.29;66.51;102271.25;5033822;28;45446;-62
2021/11/11 09:23:57;;;;;;;;;74.00;56.00;;;;;7.33;65.88;102269.44;5036782;28;45507;-62
2021/11/11 09:26:23;;;;;;;;;78.67;58.67;;;;;7.35;66.58;102271.13;5042495;28;45387;-62
2021/11/11 09:28:48;;;;;;;;;81.33;58.33;;;;;7.41;66.08;102268.38;5042312;28;45918;-63
2021/11/11 09:31:16;;;;;;;;;89.33;62.67;;;;;7.45;66.06;102266.56;5042045;28;45216;-65
2021/11/11 09:33:43;;;;;;;;;83.33;62.33;;;;;7.50;66.35;102277.78;5042266;28;45284;-63
2021/11/11 09:36:11;;;;;;;;;81.67;61.33;;;;;7.53;66.18;102273.34;5042115;28;45356;-64
2021/11/11 09:38:36;;;;;;;;;82.67;59.00;;;;;7.59;66.16;102267.13;5041632;28;45547;-66
2021/11/11 09:41:02;;;;;;;;;77.33;57.33;;;;;7.66;66.28;102266.09;5023232;28;45281;-62
2021/11/11 09:43:28;;;;;;;;;81.00;59.67;;;;;7.70;65.97;102266.88;5042187;28;45453;-62
2021/11/11 09:45:54;;;;;;;;;82.33;59.67;;;;;7.71;66.08;102276.47;5042306;28;45205;-69
2021/11/11 09:48:19;;;;;;;;;84.00;63.67;;;;;7.72;66.21;102278.19;5041933;28;45216;-60
2021/11/11 09:50:46;;;;;;;;;84.67;61.33;;;;;7.72;66.06;102270.31;5041894;28;45205;-66
2021/11/11 09:53:20;;;;;;;;;92.67;66.00;;;;;7.77;66.03;102278.94;5031332;28;45292;-63
2021/11/11 09:58:46;;;;;;;;;81.33;59.67;;;;;7.87;66.44;102275.22;5041781;28;45279;-66
2021/11/11 10:01:14;;;;;;;;;80.67;64.33;;;;;7.93;66.46;102277.69;5041926;28;45361;-66
2021/11/11 10:03:42;;;;;;;;;89.33;66.67;;;;;7.99;66.62;102282.81;5029572;28;45315;-70
2021/11/11 10:06:13;;;;;;;;;82.33;65.33;;;;;8.03;66.10;102281.81;5041702;28;45419;-66
2021/11/11 10:08:42;;;;;;;;;85.33;62.33;;;;;8.05;66.26;102276.53;5024023;28;45454;-65
2021/11/11 10:11:24;;;;;;;;;81.00;62.33;;;;;8.10;65.88;102277.28;5033014;28;45435;-72
2021/11/11 10:13:59;;;;;;;;;80.67;63.33;;;;;8.09;65.47;102267.69;5032001;28;45204;-66
2021/11/11 10:16:25;;;;;;;;;90.33;66.00;;;;;8.11;65.68;102266.75;5030568;28;45255;-64
2021/11/11 10:18:58;;;;;;;;;83.67;63.33;;;;;8.15;66.11;102270.16;5023477;28;45408;-68
2021/11/11 10:21:37;;;;;;;;;85.33;62.00;;;;;8.20;66.03;102270.03;5031102;28;45387;-66
2021/11/11 10:24:29;;;;;;;;;81.33;64.33;;;;;8.21;65.89;102259.50;5031453;28;45242;-65
2021/11/11 10:27:06;;;;;;;;;84.33;63.00;;;;;8.23;65.91;102249.84;5032552;28;45327;-65
2021/11/11 10:29:37;;;;;;;;;83.33;61.67;;;;;8.27;65.72;102246.22;5032373;28;45607;-64
2021/11/11 10:32:17;;;;;;;;;82.00;63.67;;;;;8.30;65.74;102240.06;5036663;28;45395;-66
2021/11/11 10:34:45;;;;;;;;;87.67;65.00;;;;;8.32;65.92;102233.00;5032969;28;45205;-64
2021/11/11 10:37:10;;;;;;;;;80.00;63.33;;;;;8.36;65.46;102227.63;5025869;28;45451;-64
2021/11/11 10:39:41;;;;;;;;;88.33;62.33;;;;;8.43;65.71;102223.09;5016666;28;45288;-64
2021/11/11 10:42:16;;;;;;;;;85.00;67.33;;;;;8.49;65.71;102222.06;5025551;28;45537;-64
2021/11/11 10:44:42;;;;;;;;;87.33;65.67;;;;;8.54;65.73;102225.44;5034728;28;45424;-64
2021/11/11 10:47:12;;;;;;;;;86.67;66.33;;;;;8.62;65.80;102226.09;5035762;28;45238;-73
2021/11/11 10:49:40;;;;;;;;;90.33;68.33;;;;;8.66;65.45;102236.47;5029264;28;46166;-66
2021/11/11 10:52:27;;;;;;;;;93.67;66.00;;;;;8.73;65.98;102237.16;5030495;28;45188;-68
2021/11/11 10:55:07;;;;;;;;;85.67;65.00;;;;;8.80;65.58;102236.09;5027628;28;45505;-67
2021/11/11 10:57:40;;;;;;;;;95.33;74.00;;;;;8.89;65.51;102245.47;5018747;28;45316;-66
2021/11/11 11:00:14;;;;;;;;;86.67;67.67;;;;;8.95;65.61;102237.44;5029332;28;46477;-67
2021/11/11 11:02:58;;;;;;;;;88.67;66.00;;;;;9.01;65.63;102236.41;5031790;28;45485;-68
2021/11/11 11:05:28;;;;;;;;;46.67;26.33;;;;;9.06;65.25;102234.47;5025440;28;45427;-63
2021/11/11 11:08:21;;;;;;;;;90.33;70.00;;;;;9.11;65.21;102233.44;5024935;28;45411;-65
2021/11/11 11:10:51;;;;;;;;;96.67;75.00;;;;;9.13;65.81;102230.78;5035834;28;45296;-64
2021/11/11 11:13:20;;;;;;;;;90.67;70.00;;;;;9.13;65.99;102215.84;5035124;28;45264;-64
2021/11/11 11:16:04;;;;;;;;;95.67;74.00;;;;;9.18;65.92;102207.84;5014669;28;45296;-65
2021/11/11 11:18:41;;;;;;;;;90.67;66.67;;;;;9.27;66.35;102210.19;5007670;28;45587;-63
2021/11/11 11:21:20;;;;;;;;;89.33;68.00;;;;;9.36;66.55;102204.66;5021161;28;45535;-63
2021/11/11 11:23:50;;;;;;;;;90.00;65.33;;;;;9.41;66.33;102196.63;5034022;28;45242;-63
2021/11/11 11:26:28;;;;;;;;;86.33;70.67;;;;;9.44;66.07;102189.50;5032114;28;45467;-63
2021/11/11 11:29:26;;;;;;;;;93.33;72.67;;;;;9.52;66.11;102187.47;5037210;28;45272;-63
2021/11/11 11:32:08;;;;;;;;;86.00;65.67;;;;;9.60;65.62;102184.59;5022705;28;45282;-62
2021/11/11 11:34:40;;;;;;;;;95.00;76.33;;;;;9.67;65.59;102172.97;5033079;28;45337;-65
2021/11/11 11:37:15;;;;;;;;;93.67;74.00;;;;;9.74;65.57;102171.00;5039985;28;45312;-67
2021/11/11 11:39:50;;;;;;;;;91.67;76.67;;;;;9.79;65.83;102177.84;5039838;28;45345;-64